Time;durP1;ratioP1;P1;durP2;ratioP2;P2;SDS_P1;SDS_P2;PMS_P1;PMS_P2;Temp;Humidity;BMP_temperature;BMP_pressure;BME280_temperature;BME280_humidity;BME280_pressure;Samples;Min_cycle;Max_cycle;Signal;HPM_P1;HPM_P2
2021/12/17 00:07:01;;;;;;;;;;;20.00;57.60;;;;;;5013496;28;1269;-70
2021/12/17 00:09:26;;;;;;;;;;;19.90;58.10;;;;;;5009338;28;1116;-70
2021/12/17 00:11:52;;;;;;;;;;;19.90;57.60;;;;;;5013166;28;1332;-70
2021/12/17 00:14:26;;;;;;;;;;;19.90;57.60;;;;;;5013626;28;1312;-69
2021/12/17 00:16:52;;;;;;;;;;;19.90;57.60;;;;;;4994427;28;1333;-70
2021/12/17 00:48:24;;;;;;;;;;;19.80;57.90;;;;;;4993518;28;1292;-69
2021/12/17 00:49:24;;;;;;;;;;;19.80;57.90;;;;;;4992851;28;1280;-69
2021/12/17 00:51:58;;;;;;;;;;;19.80;57.90;;;;;;4993110;28;1272;-71
2021/12/17 00:54:32;;;;;;;;;;;19.80;57.90;;;;;;4993056;28;1328;-70
2021/12/17 00:56:58;;;;;;;;;;;19.80;58.00;;;;;;4983719;28;1364;-69
2021/12/17 00:59:24;;;;;;;;;;;19.80;58.00;;;;;;5009697;28;1910;-70
2021/12/17 01:01:50;;;;;;;;;;;19.80;58.00;;;;;;4994702;28;1369;-70
2021/12/17 01:04:15;;;;;;;;;;;19.80;58.00;;;;;;5012754;28;1595;-70
2021/12/17 01:06:41;;;;;;;;;;;19.80;58.00;;;;;;5012605;28;1576;-71
2021/12/17 01:09:06;;;;;;;;;;;19.80;58.00;;;;;;4991896;28;1407;-70
2021/12/17 01:11:32;;;;;;;;;;;19.80;58.00;;;;;;5003993;28;1277;-70
2021/12/17 01:13:57;;;;;;;;;;;19.80;58.00;;;;;;5012747;28;1273;-70
2021/12/17 01:16:23;;;;;;;;;;;19.80;58.10;;;;;;5012388;28;1647;-70
2021/12/17 01:19:07;;;;;;;;;;;19.70;58.00;;;;;;5008350;28;1957;-70
2021/12/17 01:24:13;;;;;;;;;;;19.70;58.10;;;;;;5005704;28;1155;-70
2021/12/17 01:35:21;;;;;;;;;;;19.70;58.20;;;;;;5016508;28;1473;-69
2021/12/17 01:42:59;;;;;;;;;;;19.70;58.20;;;;;;5001159;28;1635;-70
2021/12/17 01:45:29;;;;;;;;;;;19.70;58.20;;;;;;4996886;28;1660;-70
2021/12/17 01:47:54;;;;;;;;;;;19.70;58.20;;;;;;4996825;28;1485;-70
2021/12/17 01:56:01;;;;;;;;;;;19.70;58.30;;;;;;5016055;28;1493;-70
2021/12/17 02:01:10;;;;;;;;;;;19.60;58.30;;;;;;5014517;28;1694;-69
2021/12/17 02:03:36;;;;;;;;;;;19.60;58.20;;;;;;5016302;28;1600;-69
2021/12/17 02:06:03;;;;;;;;;;;19.60;58.30;;;;;;5016082;28;1415;-70
2021/12/17 02:08:29;;;;;;;;;;;19.60;58.30;;;;;;5011993;28;1768;-69
2021/12/17 02:22:28;;;;;;;;;;;19.60;58.30;;;;;;5015961;28;1547;-70
2021/12/17 02:32:55;;;;;;;;;;;19.60;58.40;;;;;;5015985;28;1351;-70
2021/12/17 02:37:55;;;;;;;;;;;19.60;58.40;;;;;;5015644;28;1903;-70
2021/12/17 02:45:45;;;;;;;;;;;19.60;58.30;;;;;;4999790;28;1344;-70
2021/12/17 02:48:10;;;;;;;;;;;19.60;58.30;;;;;;4997161;28;1206;-69
2021/12/17 02:50:37;;;;;;;;;;;19.70;58.30;;;;;;4995546;28;1339;-70
2021/12/17 02:53:07;;;;;;;;;;;19.70;58.20;;;;;;4995527;28;1407;-70
2021/12/17 02:55:32;;;;;;;;;;;19.70;58.10;;;;;;4986404;28;1245;-69
2021/12/17 02:57:58;;;;;;;;;;;19.70;58.00;;;;;;5013174;28;1898;-70
2021/12/17 03:00:23;;;;;;;;;;;19.80;58.00;;;;;;4997458;28;1212;-69
2021/12/17 03:02:49;;;;;;;;;;;19.80;57.90;;;;;;5014603;28;1271;-70
2021/12/17 03:05:14;;;;;;;;;;;19.80;57.80;;;;;;4997521;28;1376;-70
2021/12/17 03:07:43;;;;;;;;;;;19.90;57.80;;;;;;4995113;28;1330;-69
2021/12/17 03:10:11;;;;;;;;;;;19.80;57.70;;;;;;5012840;28;1148;-70
2021/12/17 03:15:20;;;;;;;;;;;19.90;57.60;;;;;;4996584;28;1363;-70
2021/12/17 03:25:52;;;;;;;;;;;20.00;57.40;;;;;;4984256;28;1308;-71
2021/12/17 03:28:17;;;;;;;;;;;20.00;57.40;;;;;;5010514;28;1360;-70
2021/12/17 03:30:43;;;;;;;;;;;20.00;57.50;;;;;;4997208;28;1269;-69
2021/12/17 03:33:08;;;;;;;;;;;20.00;57.40;;;;;;4994169;28;1379;-69
2021/12/17 03:35:34;;;;;;;;;;;20.00;57.40;;;;;;4994643;28;1256;-70
2021/12/17 03:37:59;;;;;;;;;;;20.00;57.30;;;;;;4994171;28;1953;-70
2021/12/17 03:40:26;;;;;;;;;;;20.00;57.30;;;;;;4994598;28;1265;-70
2021/12/17 03:43:00;;;;;;;;;;;20.00;57.30;;;;;;4994565;28;1393;-70
2021/12/17 03:45:26;;;;;;;;;;;20.00;57.30;;;;;;4994857;28;1237;-70
2021/12/17 03:47:51;;;;;;;;;;;20.00;57.20;;;;;;4994032;28;1259;-70
2021/12/17 03:50:16;;;;;;;;;;;20.00;57.20;;;;;;4994803;28;1565;-70
2021/12/17 03:52:42;;;;;;;;;;;20.00;57.20;;;;;;4993814;28;1285;-70
2021/12/17 03:55:07;;;;;;;;;;;20.00;57.20;;;;;;4994489;28;1268;-70
2021/12/17 03:57:33;;;;;;;;;;;20.00;57.10;;;;;;4993937;28;1277;-70
2021/12/17 03:59:58;;;;;;;;;;;20.10;57.20;;;;;;4994411;28;1898;-70
2021/12/17 04:02:23;;;;;;;;;;;20.10;57.20;;;;;;5010295;28;1304;-69
2021/12/17 04:04:49;;;;;;;;;;;20.10;57.10;;;;;;5013596;28;1455;-70
2021/12/17 04:07:14;;;;;;;;;;;20.10;57.10;;;;;;5013488;28;1339;-69
2021/12/17 04:09:40;;;;;;;;;;;20.10;57.10;;;;;;5009047;28;1095;-68
2021/12/17 04:12:10;;;;;;;;;;;20.10;57.10;;;;;;5013488;28;1350;-70
2021/12/17 04:14:44;;;;;;;;;;;20.10;57.10;;;;;;5013626;28;1383;-70
2021/12/17 04:17:09;;;;;;;;;;;20.10;57.10;;;;;;4999771;28;1315;-71
2021/12/17 04:19:35;;;;;;;;;;;20.10;57.10;;;;;;4989359;28;1969;-70
2021/12/17 04:22:00;;;;;;;;;;;20.10;57.10;;;;;;5003333;28;1413;-71
2021/12/17 04:24:26;;;;;;;;;;;20.10;57.10;;;;;;5004220;28;1245;-70
2021/12/17 04:26:51;;;;;;;;;;;20.10;57.10;;;;;;5004036;28;1197;-71
2021/12/17 04:29:18;;;;;;;;;;;20.10;57.10;;;;;;5007156;28;1225;-70
2021/12/17 04:31:50;;;;;;;;;;;20.10;57.10;;;;;;5004966;28;1280;-70
2021/12/17 04:34:17;;;;;;;;;;;20.10;57.10;;;;;;5004737;28;1225;-71
2021/12/17 04:36:42;;;;;;;;;;;20.10;57.10;;;;;;5004479;28;1284;-69
2021/12/17 04:39:08;;;;;;;;;;;20.10;57.10;;;;;;5004878;28;1960;-70
2021/12/17 04:41:39;;;;;;;;;;;20.10;57.10;;;;;;5004599;28;1696;-69
2021/12/17 04:44:12;;;;;;;;;;;20.10;57.10;;;;;;5004275;28;1184;-69
2021/12/17 04:46:44;;;;;;;;;;;20.10;57.00;;;;;;5006933;28;1054;-69
2021/12/17 04:57:29;;;;;;;;;;;20.10;57.10;;;;;;5004150;28;1110;-71
2021/12/17 04:59:58;;;;;;;;;;;20.10;57.00;;;;;;5005284;28;1970;-70
2021/12/17 05:02:23;;;;;;;;;;;20.10;57.00;;;;;;5005536;28;1386;-69
2021/12/17 05:04:49;;;;;;;;;;;20.10;57.10;;;;;;4992452;28;1173;-69
2021/12/17 05:07:15;;;;;;;;;;;20.10;57.00;;;;;;5012365;28;1392;-69
2021/12/17 05:09:50;;;;;;;;;;;20.10;57.00;;;;;;5008432;28;1111;-69
2021/12/17 05:20:39;;;;;;;;;;;20.10;57.00;;;;;;5006391;28;1375;-68
2021/12/17 05:23:05;;;;;;;;;;;20.10;57.00;;;;;;5012697;28;1442;-69
2021/12/17 05:25:30;;;;;;;;;;;20.10;57.00;;;;;;5012965;28;1968;-69
2021/12/17 05:27:59;;;;;;;;;;;20.10;57.00;;;;;;5012489;28;1323;-69
2021/12/17 05:30:25;;;;;;;;;;;20.10;57.00;;;;;;5012762;28;1181;-69
2021/12/17 05:32:51;;;;;;;;;;;20.10;57.00;;;;;;5012819;28;1339;-70
2021/12/17 05:35:16;;;;;;;;;;;20.10;57.00;;;;;;5012852;28;1256;-70
2021/12/17 05:37:42;;;;;;;;;;;20.10;57.00;;;;;;5012292;28;1033;-69
2021/12/17 05:40:07;;;;;;;;;;;20.10;57.00;;;;;;5012659;28;1886;-68
2021/12/17 05:42:33;;;;;;;;;;;20.10;57.00;;;;;;5012488;28;1338;-70
2021/12/17 05:45:07;;;;;;;;;;;20.10;57.00;;;;;;4994953;28;1506;-70
2021/12/17 05:47:32;;;;;;;;;;;20.10;57.00;;;;;;4998557;28;1324;-70
2021/12/17 05:49:58;;;;;;;;;;;20.10;57.00;;;;;;4993088;28;1120;-69
2021/12/17 05:52:23;;;;;;;;;;;20.10;57.00;;;;;;4993031;28;1383;-69
2021/12/17 05:54:49;;;;;;;;;;;20.10;57.00;;;;;;4992858;28;1346;-69
2021/12/17 05:57:14;;;;;;;;;;;20.10;57.00;;;;;;4992797;28;1347;-69
2021/12/17 05:59:40;;;;;;;;;;;20.10;57.00;;;;;;4992584;28;1950;-68
2021/12/17 06:02:10;;;;;;;;;;;20.10;57.00;;;;;;5006342;28;1371;-69
2021/12/17 06:04:35;;;;;;;;;;;20.10;57.00;;;;;;5010215;28;1886;-70
2021/12/17 06:07:01;;;;;;;;;;;20.10;57.20;;;;;;5002857;28;2157;-69
2021/12/17 06:09:26;;;;;;;;;;;20.10;57.00;;;;;;5004176;28;1224;-69
2021/12/17 06:11:52;;;;;;;;;;;20.10;56.90;;;;;;5012259;28;1373;-70
2021/12/17 06:14:17;;;;;;;;;;;20.20;57.00;;;;;;5012195;28;1343;-70
2021/12/17 06:16:43;;;;;;;;;;;20.10;56.90;;;;;;5015202;28;1351;-70
2021/12/17 06:19:09;;;;;;;;;;;20.10;56.90;;;;;;5013856;28;1964;-70
2021/12/17 06:21:34;;;;;;;;;;;20.10;56.90;;;;;;5010491;28;1367;-70
2021/12/17 06:24:00;;;;;;;;;;;20.20;57.00;;;;;;4998255;28;1472;-71
2021/12/17 06:26:25;;;;;;;;;;;20.20;57.00;;;;;;5001189;28;1399;-70
2021/12/17 06:28:51;;;;;;;;;;;20.10;57.00;;;;;;4996045;28;1291;-70
2021/12/17 06:31:19;;;;;;;;;;;20.20;57.00;;;;;;4996189;28;1359;-71
2021/12/17 06:33:45;;;;;;;;;;;20.10;56.90;;;;;;4983363;28;1384;-70
2021/12/17 06:36:10;;;;;;;;;;;20.20;57.00;;;;;;5010092;28;1355;-69
2021/12/17 06:38:36;;;;;;;;;;;20.10;56.90;;;;;;5015389;28;1875;-69
2021/12/17 06:41:01;;;;;;;;;;;20.20;57.00;;;;;;5015545;28;1219;-69
2021/12/17 06:43:33;;;;;;;;;;;20.20;57.60;;;;;;5015226;28;1351;-70
2021/12/17 06:46:15;;;;;;;;;;;20.20;57.00;;;;;;5015262;28;1257;-70
2021/12/17 06:48:40;;;;;;;;;;;20.20;57.00;;;;;;5000239;28;1045;-70
2021/12/17 07:23:49;;;;;;;;;;;20.20;57.00;;;;;;5014858;28;1335;-68
2021/12/17 07:34:00;;;;;;;;;;;20.20;57.00;;;;;;5014697;28;1276;-69
2021/12/17 07:36:26;;;;;;;;;;;20.10;56.90;;;;;;5014214;28;1371;-70
2021/12/17 07:38:51;;;;;;;;;;;20.20;57.00;;;;;;5014248;28;1967;-70
2021/12/17 07:41:17;;;;;;;;;;;20.20;57.00;;;;;;5014372;28;1065;-69
2021/12/17 07:43:55;;;;;;;;;;;20.10;56.90;;;;;;5014164;28;1347;-69
2021/12/17 07:46:20;;;;;;;;;;;20.20;57.00;;;;;;4997402;28;1225;-68
2021/12/17 07:48:46;;;;;;;;;;;20.20;57.00;;;;;;4994592;28;1509;-70
2021/12/17 07:51:12;;;;;;;;;;;20.20;56.90;;;;;;4993166;28;1348;-70
2021/12/17 07:53:37;;;;;;;;;;;20.20;56.90;;;;;;4994594;28;1276;-69
2021/12/17 07:56:04;;;;;;;;;;;20.20;56.90;;;;;;4992661;28;1349;-69
2021/12/17 07:58:29;;;;;;;;;;;20.30;56.80;;;;;;5014157;28;1981;-68
2021/12/17 08:00:55;;;;;;;;;;;20.30;56.60;;;;;;5013864;28;1272;-69
2021/12/17 08:03:21;;;;;;;;;;;20.50;56.60;;;;;;5013924;28;1312;-69
2021/12/17 08:05:46;;;;;;;;;;;20.60;56.40;;;;;;5013628;28;1386;-69
2021/12/17 08:08:12;;;;;;;;;;;20.70;56.20;;;;;;4994686;28;1128;-69
2021/12/17 08:10:37;;;;;;;;;;;20.80;56.00;;;;;;5011034;28;1273;-69
2021/12/17 08:13:05;;;;;;;;;;;20.90;55.80;;;;;;4995911;28;1301;-68
2021/12/17 08:15:36;;;;;;;;;;;21.00;55.60;;;;;;4996472;28;1374;-69
2021/12/17 08:28:28;;;;;;;;;;;21.40;54.50;;;;;;4994158;28;1179;-67
2021/12/17 08:30:54;;;;;;;;;;;21.50;54.40;;;;;;4993867;28;1264;-69
2021/12/17 08:33:21;;;;;;;;;;;21.50;54.30;;;;;;4990886;28;1273;-69
2021/12/17 08:35:47;;;;;;;;;;;21.60;54.30;;;;;;5004444;28;875;-69
2021/12/17 08:38:12;;;;;;;;;;;21.60;54.10;;;;;;5012790;28;1902;-69
2021/12/17 08:40:38;;;;;;;;;;;21.60;54.10;;;;;;5002553;28;1245;-69
2021/12/17 08:43:03;;;;;;;;;;;21.70;54.10;;;;;;4989954;28;1366;-69
2021/12/17 08:45:29;;;;;;;;;;;21.70;54.10;;;;;;5004442;28;1312;-69
2021/12/17 08:47:54;;;;;;;;;;;21.70;54.10;;;;;;5012890;28;1157;-69
2021/12/17 08:50:20;;;;;;;;;;;21.70;54.10;;;;;;5012938;28;1263;-69
2021/12/17 08:52:46;;;;;;;;;;;21.70;54.10;;;;;;5013081;28;1357;-68
2021/12/17 08:55:11;;;;;;;;;;;21.70;54.20;;;;;;5003197;28;1068;-69
2021/12/17 08:57:37;;;;;;;;;;;21.70;54.10;;;;;;4992379;28;1289;-69
2021/12/17 09:00:06;;;;;;;;;;;21.70;54.10;;;;;;5013112;28;1957;-68
2021/12/17 09:02:33;;;;;;;;;;;21.70;54.10;;;;;;5012954;28;1287;-69
2021/12/17 09:04:58;;;;;;;;;;;21.70;54.10;;;;;;5012867;28;1312;-68
2021/12/17 09:07:24;;;;;;;;;;;21.70;54.10;;;;;;5013073;28;1308;-69
2021/12/17 09:09:49;;;;;;;;;;;21.60;54.10;;;;;;4992298;28;1124;-69
2021/12/17 09:12:15;;;;;;;;;;;21.60;54.10;;;;;;5010803;28;1308;-69
2021/12/17 09:14:40;;;;;;;;;;;21.60;54.20;;;;;;4995362;28;1443;-69
2021/12/17 09:17:06;;;;;;;;;;;21.60;54.30;;;;;;4995520;28;1255;-70
2021/12/17 09:19:32;;;;;;;;;;;21.60;54.30;;;;;;4998204;28;1906;-69
2021/12/17 09:21:58;;;;;;;;;;;21.50;54.30;;;;;;5012863;28;1283;-69
2021/12/17 09:24:23;;;;;;;;;;;21.50;54.30;;;;;;5012927;28;1520;-69
2021/12/17 09:26:48;;;;;;;;;;;21.50;54.40;;;;;;5012611;28;1344;-69
2021/12/17 09:29:14;;;;;;;;;;;21.50;54.40;;;;;;5003284;28;718;-71
2021/12/17 09:31:41;;;;;;;;;;;21.50;54.50;;;;;;4989105;28;1283;-71
2021/12/17 09:34:06;;;;;;;;;;;21.50;54.50;;;;;;5002980;28;1093;-71
2021/12/17 09:36:33;;;;;;;;;;;21.50;54.60;;;;;;4996509;28;1136;-71
2021/12/17 09:38:58;;;;;;;;;;;21.40;54.60;;;;;;5003112;28;1963;-71
2021/12/17 09:41:26;;;;;;;;;;;21.40;54.60;;;;;;4982157;28;1092;-71
2021/12/17 09:43:52;;;;;;;;;;;21.40;54.60;;;;;;5001362;28;1319;-71
2021/12/17 09:46:18;;;;;;;;;;;21.40;54.70;;;;;;5009846;28;1041;-71
2021/12/17 09:48:44;;;;;;;;;;;21.40;54.80;;;;;;4991885;28;1100;-71
2021/12/17 09:51:09;;;;;;;;;;;21.40;54.80;;;;;;5012411;28;1045;-71
2021/12/17 09:53:35;;;;;;;;;;;21.30;54.80;;;;;;5006060;28;1271;-71
2021/12/17 09:56:00;;;;;;;;;;;21.40;54.90;;;;;;5009913;28;901;-71
2021/12/17 09:58:26;;;;;;;;;;;21.30;54.80;;;;;;4986162;28;1956;-71
2021/12/17 10:00:51;;;;;;;;;;;21.30;54.90;;;;;;5013298;28;1353;-69
2021/12/17 10:03:17;;;;;;;;;;;21.30;54.90;;;;;;5015962;28;1339;-70
2021/12/17 10:05:44;;;;;;;;;;;21.30;55.00;;;;;;5013440;28;1361;-70
2021/12/17 10:08:11;;;;;;;;;;;21.30;55.00;;;;;;5011386;28;1256;-70
2021/12/17 10:10:43;;;;;;;;;;;21.20;55.00;;;;;;5010399;28;1216;-69
2021/12/17 10:13:19;;;;;;;;;;;21.20;55.00;;;;;;5003803;28;1276;-70
2021/12/17 10:15:46;;;;;;;;;;;21.20;55.10;;;;;;5004624;28;1329;-69
2021/12/17 10:18:12;;;;;;;;;;;21.20;55.20;;;;;;5002495;28;1339;-70
2021/12/17 10:20:48;;;;;;;;;;;21.20;55.20;;;;;;5005312;28;1308;-69
2021/12/17 10:23:13;;;;;;;;;;;21.20;55.20;;;;;;5005968;28;1333;-69
2021/12/17 10:25:42;;;;;;;;;;;21.20;55.20;;;;;;5000946;28;1237;-70
2021/12/17 10:28:07;;;;;;;;;;;21.20;55.30;;;;;;5010582;28;986;-70
2021/12/17 10:30:34;;;;;;;;;;;21.20;55.30;;;;;;5014452;28;919;-69
2021/12/17 10:33:01;;;;;;;;;;;21.10;55.30;;;;;;5000145;28;1368;-69
2021/12/17 10:35:27;;;;;;;;;;;21.20;55.40;;;;;;4986800;28;1182;-69
2021/12/17 10:37:57;;;;;;;;;;;21.20;55.30;;;;;;5014201;28;1076;-70
2021/12/17 10:40:49;;;;;;;;;;;21.10;55.30;;;;;;5015556;28;1894;-69
2021/12/17 10:43:25;;;;;;;;;;;21.10;55.50;;;;;;5002181;28;1275;-69
2021/12/17 10:46:01;;;;;;;;;;;21.10;55.40;;;;;;5015236;28;1359;-69
2021/12/17 10:48:31;;;;;;;;;;;21.10;55.40;;;;;;4995795;28;1391;-69
2021/12/17 10:51:00;;;;;;;;;;;21.10;55.50;;;;;;4992486;28;1351;-69
2021/12/17 10:53:25;;;;;;;;;;;21.10;55.50;;;;;;5014930;28;1300;-70
2021/12/17 10:55:52;;;;;;;;;;;21.10;55.50;;;;;;4995263;28;1317;-69
2021/12/17 10:58:17;;;;;;;;;;;21.00;55.50;;;;;;4995466;28;1910;-70
2021/12/17 11:01:06;;;;;;;;;;;21.00;55.50;;;;;;5010918;28;1140;-70
2021/12/17 11:03:41;;;;;;;;;;;21.00;55.60;;;;;;4996591;28;1363;-69
2021/12/17 11:06:06;;;;;;;;;;;21.00;55.60;;;;;;5014749;28;1304;-68
2021/12/17 11:08:34;;;;;;;;;;;21.00;55.60;;;;;;5012067;28;1277;-67
2021/12/17 11:11:08;;;;;;;;;;;21.00;55.60;;;;;;5007970;28;1336;-69
2021/12/17 11:13:34;;;;;;;;;;;21.00;55.60;;;;;;4994445;28;2138;-70
2021/12/17 11:15:59;;;;;;;;;;;21.00;55.70;;;;;;5008345;28;1098;-68
2021/12/17 11:18:25;;;;;;;;;;;21.00;55.70;;;;;;5002341;28;1915;-69
2021/12/17 11:20:52;;;;;;;;;;;21.00;55.70;;;;;;4995222;28;1200;-69
2021/12/17 11:23:18;;;;;;;;;;;21.00;55.70;;;;;;4994768;28;1329;-68
2021/12/17 11:25:44;;;;;;;;;;;21.00;55.80;;;;;;4995029;28;1355;-69
2021/12/17 11:28:10;;;;;;;;;;;21.00;55.80;;;;;;4994911;28;1325;-68
2021/12/17 11:30:36;;;;;;;;;;;20.90;55.80;;;;;;4994962;28;1288;-68
2021/12/17 11:33:04;;;;;;;;;;;20.90;55.80;;;;;;4989438;28;1304;-69
2021/12/17 11:35:30;;;;;;;;;;;20.90;55.80;;;;;;5014453;28;1248;-69
2021/12/17 11:38:00;;;;;;;;;;;20.90;55.80;;;;;;5014486;28;1308;-69
2021/12/17 11:40:27;;;;;;;;;;;20.90;55.90;;;;;;5005608;28;2017;-69
2021/12/17 11:42:59;;;;;;;;;;;20.90;55.90;;;;;;5008256;28;1276;-69
2021/12/17 11:45:26;;;;;;;;;;;20.90;55.90;;;;;;5005554;28;1113;-68
2021/12/17 11:47:52;;;;;;;;;;;20.90;56.00;;;;;;5005188;28;1164;-71
2021/12/17 11:50:17;;;;;;;;;;;20.80;56.00;;;;;;5005982;28;1229;-70
2021/12/17 11:52:47;;;;;;;;;;;20.80;56.10;;;;;;5006172;28;1284;-69
2021/12/17 11:55:27;;;;;;;;;;;20.80;56.10;;;;;;5006232;28;1260;-69
2021/12/17 11:57:57;;;;;;;;;;;20.80;56.10;;;;;;5006380;28;1292;-69
2021/12/17 12:00:24;;;;;;;;;;;20.80;56.80;;;;;;5004022;28;1902;-69
2021/12/17 12:02:50;;;;;;;;;;;20.80;56.20;;;;;;5005342;28;1309;-69
2021/12/17 12:05:34;;;;;;;;;;;20.80;56.20;;;;;;5010809;28;1232;-70
2021/12/17 12:08:19;;;;;;;;;;;20.80;56.10;;;;;;5000925;28;1360;-69
2021/12/17 12:10:44;;;;;;;;;;;20.90;56.10;;;;;;5002054;28;1231;-70
2021/12/17 12:13:09;;;;;;;;;;;20.90;56.00;;;;;;5005242;28;1451;-69
2021/12/17 12:15:37;;;;;;;;;;;21.00;55.90;;;;;;5003920;28;1172;-69
2021/12/17 12:18:05;;;;;;;;;;;21.00;55.80;;;;;;5004780;28;1260;-68
2021/12/17 12:23:14;;;;;;;;;;;21.10;55.60;;;;;;4993879;28;1369;-70
2021/12/17 12:25:40;;;;;;;;;;;21.20;55.50;;;;;;5002019;28;2037;-69
2021/12/17 12:28:05;;;;;;;;;;;21.20;55.40;;;;;;5005387;28;1018;-70
2021/12/17 12:30:35;;;;;;;;;;;21.20;55.30;;;;;;5004200;28;1144;-70
2021/12/17 12:33:03;;;;;;;;;;;21.20;55.20;;;;;;5012957;28;1330;-69
2021/12/17 12:35:30;;;;;;;;;;;21.20;55.20;;;;;;5013158;28;1292;-69
2021/12/17 12:38:25;;;;;;;;;;;21.20;55.20;;;;;;5012911;28;1346;-69
2021/12/17 12:40:50;;;;;;;;;;;21.20;55.10;;;;;;4995967;28;1294;-69
2021/12/17 12:43:29;;;;;;;;;;;21.30;55.70;;;;;;4995636;28;1417;-69
2021/12/17 12:45:55;;;;;;;;;;;21.30;55.10;;;;;;4998804;28;1331;-69
2021/12/17 12:48:27;;;;;;;;;;;21.30;55.10;;;;;;4988545;28;2219;-69
2021/12/17 12:50:53;;;;;;;;;;;21.30;55.10;;;;;;5009686;28;1246;-69
2021/12/17 12:53:18;;;;;;;;;;;21.30;55.10;;;;;;4988289;28;1435;-69
2021/12/17 12:55:45;;;;;;;;;;;21.30;55.10;;;;;;5006441;28;1573;-68
2021/12/17 12:58:11;;;;;;;;;;;21.30;55.10;;;;;;4989006;28;2245;-69
2021/12/17 13:00:47;;;;;;;;;;;21.30;55.10;;;;;;4998951;28;1898;-68
2021/12/17 13:03:14;;;;;;;;;;;21.30;55.10;;;;;;5001666;28;1319;-68
2021/12/17 13:05:40;;;;;;;;;;;21.30;55.10;;;;;;5002262;28;982;-68
2021/12/17 13:08:06;;;;;;;;;;;21.30;55.10;;;;;;4999402;28;1284;-68
2021/12/17 13:10:33;;;;;;;;;;;21.30;55.10;;;;;;5012826;28;1333;-68
2021/12/17 13:13:03;;;;;;;;;;;21.30;55.10;;;;;;5012697;28;1283;-69
2021/12/17 13:15:42;;;;;;;;;;;21.30;55.20;;;;;;5012917;28;1343;-69
2021/12/17 13:21:19;;;;;;;;;;;21.20;55.20;;;;;;5004661;28;964;-69
2021/12/17 13:23:49;;;;;;;;;;;21.20;55.20;;;;;;4992551;28;1510;-69
2021/12/17 13:26:15;;;;;;;;;;;21.20;55.20;;;;;;4995838;28;1147;-68
2021/12/17 13:29:01;;;;;;;;;;;21.20;55.20;;;;;;4978932;28;1358;-68
2021/12/17 13:31:30;;;;;;;;;;;21.20;55.30;;;;;;5011914;28;1414;-68
2021/12/17 13:33:55;;;;;;;;;;;21.20;55.30;;;;;;5016620;28;1258;-69
2021/12/17 13:36:21;;;;;;;;;;;21.20;55.30;;;;;;5016432;28;1280;-68
2021/12/17 13:38:46;;;;;;;;;;;21.20;55.40;;;;;;5016449;28;1898;-69
2021/12/17 13:41:12;;;;;;;;;;;21.20;55.40;;;;;;5016501;28;1264;-69
2021/12/17 13:43:41;;;;;;;;;;;21.10;55.40;;;;;;5016530;28;1419;-68
2021/12/17 13:46:06;;;;;;;;;;;21.20;55.40;;;;;;5016058;28;1328;-68
2021/12/17 13:48:32;;;;;;;;;;;21.10;55.40;;;;;;5016361;28;1371;-69
2021/12/17 13:50:57;;;;;;;;;;;21.10;55.40;;;;;;4996411;28;1255;-68
2021/12/17 13:53:23;;;;;;;;;;;21.10;55.40;;;;;;4996570;28;1362;-69
2021/12/17 13:55:48;;;;;;;;;;;21.10;55.50;;;;;;4996435;28;1331;-68
2021/12/17 13:58:17;;;;;;;;;;;21.10;55.50;;;;;;4996655;28;1334;-69
2021/12/17 14:00:43;;;;;;;;;;;21.10;55.50;;;;;;4993182;28;1898;-69
2021/12/17 14:03:09;;;;;;;;;;;21.10;55.60;;;;;;4998508;28;1369;-69
2021/12/17 14:05:44;;;;;;;;;;;21.10;55.60;;;;;;4996390;28;1382;-69
2021/12/17 14:08:10;;;;;;;;;;;21.10;55.60;;;;;;4987021;28;1221;-69
2021/12/17 14:10:36;;;;;;;;;;;21.10;55.60;;;;;;5011480;28;1366;-69
2021/12/17 14:13:02;;;;;;;;;;;21.10;55.60;;;;;;4996297;28;1336;-69
2021/12/17 14:15:34;;;;;;;;;;;21.00;55.60;;;;;;4996187;28;1124;-69
2021/12/17 14:18:01;;;;;;;;;;;21.00;55.60;;;;;;4995932;28;1025;-69
2021/12/17 14:20:30;;;;;;;;;;;21.00;55.70;;;;;;5008757;28;1906;-69
2021/12/17 14:22:59;;;;;;;;;;;21.00;55.70;;;;;;4998145;28;1341;-69
2021/12/17 14:25:35;;;;;;;;;;;21.00;55.70;;;;;;4998727;28;1371;-69
2021/12/17 14:28:07;;;;;;;;;;;21.00;55.70;;;;;;5001883;28;1274;-69
2021/12/17 14:30:35;;;;;;;;;;;21.00;55.80;;;;;;4995959;28;1316;-68
2021/12/17 14:33:07;;;;;;;;;;;21.00;55.80;;;;;;4996480;28;1340;-68
2021/12/17 14:35:43;;;;;;;;;;;21.00;55.80;;;;;;4995942;28;1289;-69
2021/12/17 14:38:08;;;;;;;;;;;21.00;55.80;;;;;;4995790;28;1347;-69
2021/12/17 14:40:42;;;;;;;;;;;20.90;55.80;;;;;;4995752;28;1898;-69
2021/12/17 14:43:24;;;;;;;;;;;20.90;55.80;;;;;;4992446;28;2206;-69
2021/12/17 14:46:12;;;;;;;;;;;20.90;55.90;;;;;;5009257;28;1307;-68
2021/12/17 14:48:47;;;;;;;;;;;20.90;55.90;;;;;;4995924;28;1351;-68
2021/12/17 15:00:21;;;;;;;;;;;20.90;56.00;;;;;;4998625;28;1950;-68
2021/12/17 15:02:44;;;;;;;;;;;20.90;56.00;;;;;;5014733;28;1264;-68
2021/12/17 15:05:09;;;;;;;;;;;20.80;56.00;;;;;;5015142;28;1237;-67
2021/12/17 15:07:35;;;;;;;;;;;20.80;56.00;;;;;;5014318;28;1263;-68
2021/12/17 15:10:02;;;;;;;;;;;20.80;56.00;;;;;;4998339;28;1076;-68
2021/12/17 15:14:59;;;;;;;;;;;20.80;56.10;;;;;;4995743;28;1112;-68
2021/12/17 15:17:25;;;;;;;;;;;20.80;56.10;;;;;;4994635;28;1328;-68
2021/12/17 15:19:50;;;;;;;;;;;20.80;56.10;;;;;;4998733;28;1899;-68
2021/12/17 15:22:16;;;;;;;;;;;20.80;56.10;;;;;;5013297;28;1316;-68
2021/12/17 15:24:41;;;;;;;;;;;20.80;56.10;;;;;;5014552;28;1155;-69
2021/12/17 15:27:06;;;;;;;;;;;20.80;56.20;;;;;;5014073;28;1315;-68
2021/12/17 15:29:32;;;;;;;;;;;20.80;56.20;;;;;;5014539;28;1351;-68
2021/12/17 15:31:57;;;;;;;;;;;20.70;56.10;;;;;;4996881;28;1324;-68
2021/12/17 15:34:23;;;;;;;;;;;20.70;56.20;;;;;;4996716;28;1416;-68
2021/12/17 15:36:49;;;;;;;;;;;20.80;56.20;;;;;;4997456;28;1319;-68
2021/12/17 15:39:15;;;;;;;;;;;20.70;56.20;;;;;;4995986;28;1906;-68
2021/12/17 15:41:41;;;;;;;;;;;20.70;56.20;;;;;;4991607;28;1586;-67
2021/12/17 15:44:07;;;;;;;;;;;20.70;56.20;;;;;;4990896;28;1841;-69
2021/12/17 15:46:32;;;;;;;;;;;20.70;56.20;;;;;;5013414;28;1260;-69
2021/12/17 15:48:58;;;;;;;;;;;20.70;56.20;;;;;;5009244;28;1056;-70
2021/12/17 15:51:23;;;;;;;;;;;20.70;56.80;;;;;;4997356;28;1882;-68
2021/12/17 15:53:49;;;;;;;;;;;20.70;56.20;;;;;;5001482;28;1265;-68
2021/12/17 15:56:14;;;;;;;;;;;20.70;56.80;;;;;;4997476;28;1370;-68
2021/12/17 15:58:40;;;;;;;;;;;20.70;56.30;;;;;;4997295;28;1954;-67
2021/12/17 16:01:05;;;;;;;;;;;20.70;56.30;;;;;;5007225;28;1331;-67
2021/12/17 16:03:33;;;;;;;;;;;20.70;56.30;;;;;;5009463;28;1351;-68
2021/12/17 16:05:59;;;;;;;;;;;20.70;56.30;;;;;;4993304;28;1281;-68
2021/12/17 16:08:25;;;;;;;;;;;20.70;56.30;;;;;;4988646;28;1367;-67
2021/12/17 16:11:13;;;;;;;;;;;20.70;56.30;;;;;;4979313;28;1182;-68
2021/12/17 16:21:42;;;;;;;;;;;20.70;56.30;;;;;;4999866;28;1403;-68
2021/12/17 16:24:07;;;;;;;;;;;20.60;56.30;;;;;;5001574;28;1072;-68
2021/12/17 16:26:32;;;;;;;;;;;20.60;56.30;;;;;;5012859;28;1312;-69
2021/12/17 16:28:58;;;;;;;;;;;20.60;56.30;;;;;;5012816;28;1032;-69
2021/12/17 16:31:24;;;;;;;;;;;20.60;56.40;;;;;;5005581;28;1733;-69
2021/12/17 16:33:51;;;;;;;;;;;20.60;56.40;;;;;;4993527;28;1181;-69
2021/12/17 16:36:16;;;;;;;;;;;20.60;56.40;;;;;;5000552;28;1154;-69
2021/12/17 16:38:42;;;;;;;;;;;20.60;56.40;;;;;;4993983;28;1961;-69
2021/12/17 16:41:08;;;;;;;;;;;20.60;56.40;;;;;;4987250;28;1274;-69
2021/12/17 16:43:34;;;;;;;;;;;20.60;56.40;;;;;;5011231;28;1301;-69
2021/12/17 16:48:51;;;;;;;;;;;20.60;56.50;;;;;;4981397;28;1868;-68
2021/12/17 16:51:17;;;;;;;;;;;20.60;56.50;;;;;;4990377;28;1455;-71
2021/12/17 16:53:44;;;;;;;;;;;20.60;56.50;;;;;;5003817;28;1636;-68
2021/12/17 16:56:09;;;;;;;;;;;20.60;56.50;;;;;;5009350;28;1330;-69
2021/12/17 16:58:35;;;;;;;;;;;20.60;56.60;;;;;;4983154;28;1965;-70
2021/12/17 17:01:00;;;;;;;;;;;20.60;56.60;;;;;;5009403;28;1425;-67
2021/12/17 17:03:25;;;;;;;;;;;20.60;56.60;;;;;;5013243;28;1282;-71
2021/12/17 17:05:51;;;;;;;;;;;20.60;56.60;;;;;;5009800;28;1643;-69
2021/12/17 17:08:17;;;;;;;;;;;20.60;56.60;;;;;;5000486;28;1483;-69
2021/12/17 17:10:50;;;;;;;;;;;20.60;56.60;;;;;;5006727;28;1607;-69
2021/12/17 17:13:15;;;;;;;;;;;20.60;56.60;;;;;;4993497;28;1655;-69
2021/12/17 17:15:41;;;;;;;;;;;20.60;57.20;;;;;;4992618;28;1635;-70
2021/12/17 17:18:06;;;;;;;;;;;20.60;56.60;;;;;;5005511;28;1010;-69
2021/12/17 17:20:32;;;;;;;;;;;20.60;56.60;;;;;;5007842;28;1974;-69
2021/12/17 17:22:58;;;;;;;;;;;20.60;56.70;;;;;;4995248;28;1682;-69
2021/12/17 17:25:23;;;;;;;;;;;20.60;56.60;;;;;;4996975;28;1436;-69
2021/12/17 17:27:48;;;;;;;;;;;20.60;56.70;;;;;;5010962;28;1893;-70
2021/12/17 17:30:15;;;;;;;;;;;20.60;56.60;;;;;;5011400;28;1628;-68
2021/12/17 17:32:41;;;;;;;;;;;20.60;56.60;;;;;;5010438;28;1495;-68
2021/12/17 17:35:06;;;;;;;;;;;20.60;56.60;;;;;;4998304;28;1726;-68
2021/12/17 17:37:33;;;;;;;;;;;20.60;56.60;;;;;;5004385;28;1389;-69
2021/12/17 17:39:58;;;;;;;;;;;20.60;56.60;;;;;;5007560;28;1994;-68
2021/12/17 17:42:24;;;;;;;;;;;20.60;56.70;;;;;;4993217;28;1428;-69
2021/12/17 17:44:49;;;;;;;;;;;20.60;56.70;;;;;;4993526;28;1354;-69